Time;durP1;ratioP1;P1;durP2;ratioP2;P2;SDS_P1;SDS_P2;PMS_P1;PMS_P2;Temp;Humidity;BMP_temperature;BMP_pressure;BME280_temperature;BME280_humidity;BME280_pressure;Samples;Min_cycle;Max_cycle;Signal;HPM_P1;HPM_P2
2021/07/01 00:00:30;;;;;;;0.40;0.40;;;23.10;50.60;;;;;;5054553;28;20021;-75
2021/07/01 00:02:56;;;;;;;0.47;0.47;;;23.10;50.60;;;;;;5054066;28;20029;-75
2021/07/01 00:05:22;;;;;;;0.22;0.20;;;23.00;50.80;;;;;;5054061;28;20053;-75
2021/07/01 00:07:48;;;;;;;0.40;0.40;;;23.00;50.70;;;;;;5052715;28;20036;-75
2021/07/01 00:10:26;;;;;;;0.50;0.50;;;23.00;50.80;;;;;;5054293;28;20021;-75
2021/07/01 00:12:53;;;;;;;0.80;0.60;;;22.90;50.70;;;;;;5054118;28;20028;-75
2021/07/01 00:15:22;;;;;;;1.55;0.32;;;22.90;50.70;;;;;;5054102;28;20021;-75
2021/07/01 00:17:48;;;;;;;1.90;0.45;;;22.90;50.80;;;;;;5054197;28;20029;-75
2021/07/01 00:20:15;;;;;;;1.23;0.40;;;22.90;50.90;;;;;;5054013;28;20092;-75
2021/07/01 00:22:40;;;;;;;0.30;0.30;;;22.90;51.00;;;;;;5054041;28;20494;-75
2021/07/01 00:25:09;;;;;;;0.30;0.30;;;22.80;51.10;;;;;;5053867;28;20067;-75
2021/07/01 00:27:35;;;;;;;0.28;0.28;;;22.80;51.10;;;;;;5053640;28;20033;-75
2021/07/01 00:30:01;;;;;;;0.52;0.30;;;22.70;51.20;;;;;;5053953;28;20029;-75
2021/07/01 00:32:27;;;;;;;0.43;0.43;;;22.70;51.30;;;;;;5053894;28;20163;-75
2021/07/01 00:34:52;;;;;;;0.30;0.30;;;22.70;51.30;;;;;;5053844;28;20036;-75
2021/07/01 00:37:18;;;;;;;0.47;0.35;;;22.70;51.30;;;;;;5053826;28;20028;-75
2021/07/01 00:39:44;;;;;;;0.40;0.40;;;22.70;51.10;;;;;;5053584;28;20466;-75
2021/07/01 00:42:10;;;;;;;0.47;0.47;;;22.70;51.20;;;;;;5039922;28;20224;-75
2021/07/01 00:44:35;;;;;;;0.30;0.30;;;22.70;51.70;;;;;;5033779;28;20065;-75
2021/07/01 00:47:01;;;;;;;0.60;0.30;;;22.60;50.90;;;;;;5033624;28;20021;-76
2021/07/01 00:49:27;;;;;;;0.35;0.35;;;22.70;50.90;;;;;;5033538;28;20034;-75
2021/07/01 00:51:53;;;;;;;0.30;0.30;;;22.70;50.90;;;;;;5032031;28;20076;-75
2021/07/01 00:54:19;;;;;;;0.20;0.20;;;22.70;50.90;;;;;;5033407;28;20032;-75
2021/07/01 00:56:45;;;;;;;1.63;0.30;;;22.70;50.90;;;;;;5033497;28;20456;-75
2021/07/01 00:59:11;;;;;;;0.20;0.20;;;22.60;50.90;;;;;;5033489;28;20032;-76
2021/07/01 01:01:40;;;;;;;0.35;0.35;;;22.70;50.90;;;;;;5036609;28;20374;-75
2021/07/01 01:04:06;;;;;;;0.40;0.40;;;22.60;50.90;;;;;;5052962;28;20029;-75
2021/07/01 01:06:33;;;;;;;0.28;0.28;;;22.60;51.30;;;;;;5053297;28;20467;-75
2021/07/01 01:08:59;;;;;;;1.88;0.40;;;22.40;51.40;;;;;;5051762;28;20020;-75
2021/07/01 01:11:27;;;;;;;0.40;0.40;;;22.40;51.70;;;;;;5051449;28;20021;-75
2021/07/01 01:13:55;;;;;;;0.40;0.40;;;22.30;51.70;;;;;;5053263;28;20029;-75
2021/07/01 01:16:21;;;;;;;0.30;0.30;;;22.30;52.00;;;;;;5051336;28;20025;-75
2021/07/01 01:18:48;;;;;;;0.43;0.43;;;22.40;51.90;;;;;;5052901;28;20029;-75
2021/07/01 01:21:18;;;;;;;0.47;0.47;;;22.40;52.00;;;;;;5052969;28;20023;-75
2021/07/01 01:23:44;;;;;;;0.57;0.30;;;22.40;51.90;;;;;;5053143;28;20634;-75
2021/07/01 01:26:10;;;;;;;0.63;0.40;;;22.40;51.90;;;;;;5052521;28;20518;-75
2021/07/01 01:28:36;;;;;;;0.38;0.38;;;22.40;51.80;;;;;;5051551;28;20068;-75
2021/07/01 01:31:05;;;;;;;0.90;0.50;;;22.40;51.80;;;;;;5052801;28;20463;-75
2021/07/01 01:33:31;;;;;;;1.25;0.35;;;22.40;51.90;;;;;;5052340;28;20029;-75
2021/07/01 01:35:57;;;;;;;0.30;0.30;;;22.40;51.90;;;;;;5052574;28;20025;-75
2021/07/01 01:38:23;;;;;;;0.65;0.40;;;22.40;52.00;;;;;;5052589;28;20028;-75
2021/07/01 01:40:49;;;;;;;0.30;0.30;;;22.30;52.40;;;;;;5052766;28;20079;-75
2021/07/01 01:43:19;;;;;;;0.70;0.55;;;22.30;52.30;;;;;;5052389;28;20048;-75
2021/07/01 01:45:46;;;;;;;0.30;0.30;;;22.20;52.60;;;;;;5054830;28;20036;-75
2021/07/01 01:48:13;;;;;;;0.20;0.20;;;22.10;52.80;;;;;;5052647;28;20419;-75
2021/07/01 01:50:40;;;;;;;0.30;0.30;;;22.10;52.90;;;;;;5052665;28;20200;-75
2021/07/01 01:53:07;;;;;;;0.30;0.30;;;22.10;52.70;;;;;;5052435;28;20136;-75
2021/07/01 01:55:33;;;;;;;0.63;0.50;;;22.10;52.90;;;;;;5050896;28;20119;-75
2021/07/01 01:57:59;;;;;;;0.32;0.32;;;22.00;52.80;;;;;;5052607;28;20075;-75
2021/07/01 02:00:26;;;;;;;0.52;0.30;;;22.10;53.00;;;;;;5052206;28;20403;-75
2021/07/01 02:02:52;;;;;;;0.80;0.60;;;22.10;52.90;;;;;;5051110;28;20156;-75
2021/07/01 02:05:19;;;;;;;0.30;0.30;;;22.10;53.80;;;;;;5051971;28;20411;-75
2021/07/01 02:07:44;;;;;;;0.40;0.40;;;22.10;53.40;;;;;;5052191;28;20494;-75
2021/07/01 02:10:19;;;;;;;0.35;0.35;;;22.10;53.50;;;;;;5052272;28;20013;-75
2021/07/01 02:12:44;;;;;;;1.00;0.40;;;22.10;53.30;;;;;;5049955;28;20509;-74
2021/07/01 02:15:13;;;;;;;0.60;0.60;;;21.90;53.60;;;;;;5055897;28;20022;-75
2021/07/01 02:17:40;;;;;;;0.55;0.40;;;21.90;53.70;;;;;;5056540;28;20025;-75
2021/07/01 02:20:14;;;;;;;0.30;0.30;;;21.90;54.50;;;;;;5056272;28;20100;-75
2021/07/01 02:22:41;;;;;;;0.98;0.70;;;21.90;53.80;;;;;;5056249;28;20471;-75
2021/07/01 02:25:09;;;;;;;0.43;0.43;;;21.80;54.00;;;;;;5056340;28;20048;-75
2021/07/01 02:27:36;;;;;;;1.70;0.50;;;21.70;54.10;;;;;;5056061;28;20029;-75
2021/07/01 02:30:04;;;;;;;1.13;0.40;;;21.80;54.10;;;;;;5056102;28;20021;-76
2021/07/01 02:32:30;;;;;;;1.27;0.93;;;21.80;54.00;;;;;;5054980;28;20079;-75
2021/07/01 02:34:56;;;;;;;0.47;0.45;;;21.80;53.90;;;;;;5056139;28;20466;-75
2021/07/01 02:37:23;;;;;;;0.55;0.52;;;21.80;53.90;;;;;;5056017;28;20021;-75
2021/07/01 02:39:49;;;;;;;0.30;0.30;;;21.80;53.80;;;;;;5055991;28;20017;-75
2021/07/01 02:42:15;;;;;;;0.32;0.32;;;21.80;53.80;;;;;;5055915;28;20029;-75
2021/07/01 02:44:40;;;;;;;1.10;0.50;;;21.90;53.90;;;;;;5054500;28;20120;-75
2021/07/01 02:47:06;;;;;;;0.63;0.40;;;21.80;53.90;;;;;;5055877;28;20032;-75
2021/07/01 02:49:32;;;;;;;0.70;0.70;;;21.80;53.90;;;;;;5054303;28;20079;-75
2021/07/01 02:51:58;;;;;;;0.30;0.30;;;21.80;54.10;;;;;;5055617;28;20052;-75
2021/07/01 02:54:24;;;;;;;1.02;0.40;;;21.80;54.10;;;;;;5055600;28;20025;-75
2021/07/01 02:56:50;;;;;;;0.50;0.50;;;21.90;53.90;;;;;;5055771;28;20043;-75
2021/07/01 02:59:18;;;;;;;0.60;0.60;;;21.90;54.00;;;;;;5055112;28;20053;-75
2021/07/01 03:01:48;;;;;;;0.80;0.75;;;21.80;54.10;;;;;;5055734;28;20025;-74
2021/07/01 03:04:14;;;;;;;0.90;0.90;;;21.80;54.30;;;;;;5055448;28;20055;-75
2021/07/01 03:06:41;;;;;;;0.50;0.50;;;21.80;54.00;;;;;;5055635;28;20425;-75
2021/07/01 03:09:07;;;;;;;0.55;0.35;;;21.80;54.00;;;;;;5054974;28;20027;-75
2021/07/01 03:11:33;;;;;;;1.63;0.57;;;21.80;54.20;;;;;;5055376;28;20025;-75
2021/07/01 03:13:59;;;;;;;0.95;0.40;;;21.80;54.40;;;;;;5055372;28;20024;-74
2021/07/01 03:16:25;;;;;;;0.40;0.40;;;21.70;54.40;;;;;;5053941;28;20025;-75
2021/07/01 03:18:52;;;;;;;0.40;0.40;;;21.80;54.60;;;;;;5055129;28;20044;-75
2021/07/01 03:21:20;;;;;;;0.40;0.40;;;21.80;54.60;;;;;;5055396;28;20022;-75
2021/07/01 03:23:46;;;;;;;3.33;0.45;;;21.70;54.50;;;;;;5054754;28;20479;-75
2021/07/01 03:26:13;;;;;;;0.30;0.30;;;21.70;54.40;;;;;;5054686;28;20025;-75
2021/07/01 03:28:39;;;;;;;2.30;0.47;;;21.70;54.60;;;;;;5054886;28;20155;-75
2021/07/01 03:31:06;;;;;;;1.00;0.50;;;21.70;54.70;;;;;;5054932;28;20025;-75
2021/07/01 03:33:33;;;;;;;5.10;0.52;;;21.70;54.80;;;;;;5055165;28;20033;-74
2021/07/01 03:35:59;;;;;;;0.30;0.30;;;21.60;54.70;;;;;;5054564;28;20163;-74
2021/07/01 03:38:25;;;;;;;4.05;0.75;;;21.60;55.00;;;;;;5055006;28;20542;-75
2021/07/01 03:40:51;;;;;;;2.28;0.60;;;21.60;55.00;;;;;;5054962;28;20100;-75
2021/07/01 03:43:17;;;;;;;1.27;0.68;;;21.60;55.10;;;;;;5054855;28;20033;-75
2021/07/01 03:45:43;;;;;;;0.60;0.60;;;21.50;55.10;;;;;;5053217;28;20031;-75
2021/07/01 03:48:09;;;;;;;0.40;0.40;;;21.60;55.20;;;;;;5056844;28;20033;-75
2021/07/01 03:50:35;;;;;;;0.73;0.65;;;21.60;55.20;;;;;;5054564;28;20032;-75
2021/07/01 03:53:01;;;;;;;2.25;1.00;;;21.60;55.30;;;;;;5054476;28;20671;-75
2021/07/01 03:55:26;;;;;;;0.43;0.43;;;21.50;55.40;;;;;;5054324;28;20451;-75
2021/07/01 03:57:52;;;;;;;1.17;0.50;;;21.50;55.90;;;;;;5054608;28;20017;-75
2021/07/01 04:00:18;;;;;;;0.50;0.45;;;21.60;55.70;;;;;;5054454;28;20071;-75
2021/07/01 04:02:44;;;;;;;0.40;0.40;;;21.50;55.50;;;;;;5054217;28;20024;-75
2021/07/01 04:05:10;;;;;;;0.60;0.50;;;21.50;55.70;;;;;;5053962;28;20403;-75
2021/07/01 04:07:36;;;;;;;0.70;0.70;;;21.50;56.00;;;;;;5054120;28;20029;-75
2021/07/01 04:20:09;;;;;;;0.60;0.60;;;21.40;56.30;;;;;;5034225;28;20726;-75
2021/07/01 04:22:35;;;;;;;3.83;0.68;;;21.30;56.50;;;;;;5034014;28;20032;-75
2021/07/01 04:25:01;;;;;;;4.90;0.57;;;21.40;56.40;;;;;;5043589;28;20021;-74
2021/07/01 04:27:27;;;;;;;0.70;0.60;;;21.40;56.20;;;;;;5053299;28;20480;-74
2021/07/01 04:29:53;;;;;;;2.30;0.68;;;21.40;56.40;;;;;;5053007;28;20031;-75
2021/07/01 04:32:19;;;;;;;0.50;0.50;;;21.40;56.40;;;;;;5052805;28;20399;-75
2021/07/01 04:34:45;;;;;;;0.60;0.60;;;21.40;56.50;;;;;;5048098;28;20024;-75
2021/07/01 04:37:11;;;;;;;2.38;0.70;;;21.40;56.80;;;;;;5051602;28;20471;-75
2021/07/01 04:39:37;;;;;;;1.65;0.60;;;21.40;57.00;;;;;;5053621;28;20103;-75
2021/07/01 04:42:03;;;;;;;0.75;0.60;;;21.30;56.90;;;;;;5053663;28;20025;-75
2021/07/01 04:44:29;;;;;;;0.80;0.80;;;21.30;57.20;;;;;;5052486;28;20029;-75
2021/07/01 04:46:54;;;;;;;2.35;0.70;;;21.40;56.90;;;;;;5052972;28;20368;-75
2021/07/01 04:49:20;;;;;;;0.77;0.70;;;21.30;57.20;;;;;;5052906;28;20044;-75
2021/07/01 04:51:46;;;;;;;0.93;0.80;;;21.30;58.00;;;;;;5051820;28;20128;-75
2021/07/01 04:54:12;;;;;;;0.40;0.40;;;21.40;57.50;;;;;;5046333;28;20017;-75
2021/07/01 04:56:43;;;;;;;0.63;0.50;;;21.40;57.50;;;;;;5051954;28;20372;-75
2021/07/01 04:59:20;;;;;;;0.70;0.70;;;21.40;57.40;;;;;;5038182;28;20105;-75
2021/07/01 05:01:46;;;;;;;4.38;0.90;;;21.50;57.40;;;;;;5052181;28;20017;-75
2021/07/01 05:04:14;;;;;;;0.70;0.70;;;21.50;57.60;;;;;;5052691;28;20021;-75
2021/07/01 05:06:41;;;;;;;0.40;0.40;;;21.50;57.40;;;;;;5050545;28;20025;-75
2021/07/01 05:09:08;;;;;;;1.50;0.70;;;21.50;57.70;;;;;;5053196;28;20378;-75
2021/07/01 05:11:35;;;;;;;2.17;0.50;;;21.50;57.80;;;;;;5044818;28;20494;-75
2021/07/01 05:14:01;;;;;;;1.70;0.57;;;21.50;58.10;;;;;;5033257;28;20028;-75
2021/07/01 05:16:29;;;;;;;0.85;0.50;;;21.60;58.60;;;;;;5052465;28;20107;-75
2021/07/01 05:18:59;;;;;;;0.50;0.50;;;21.60;58.00;;;;;;5047062;28;20460;-75
2021/07/01 05:21:25;;;;;;;0.63;0.43;;;21.60;58.00;;;;;;5031865;28;20021;-75
2021/07/01 05:23:51;;;;;;;0.68;0.50;;;21.60;57.90;;;;;;5031393;28;20037;-75
2021/07/01 05:26:18;;;;;;;1.33;0.50;;;21.70;58.00;;;;;;5049863;28;20082;-75
2021/07/01 05:28:44;;;;;;;2.42;0.65;;;21.80;57.80;;;;;;5052135;28;20105;-75
2021/07/01 05:31:10;;;;;;;1.23;0.50;;;21.80;57.20;;;;;;5052172;28;20666;-75
2021/07/01 05:33:36;;;;;;;0.32;0.32;;;21.90;57.40;;;;;;5051926;28;20029;-75
2021/07/01 05:36:02;;;;;;;0.68;0.60;;;22.00;57.30;;;;;;5052708;28;20021;-75
2021/07/01 05:38:28;;;;;;;5.13;0.52;;;22.10;57.10;;;;;;5051639;28;20040;-75
2021/07/01 05:40:54;;;;;;;0.60;0.60;;;22.10;56.70;;;;;;5055375;28;20029;-75
2021/07/01 05:43:20;;;;;;;0.60;0.60;;;22.20;56.60;;;;;;5051459;28;20044;-75
2021/07/01 05:45:46;;;;;;;0.85;0.50;;;22.30;57.00;;;;;;5051073;28;20029;-75
2021/07/01 05:48:12;;;;;;;0.47;0.47;;;22.30;56.60;;;;;;5050962;28;20068;-75
2021/07/01 05:50:54;;;;;;;0.45;0.45;;;22.40;57.00;;;;;;5051482;28;20447;-75
2021/07/01 05:53:29;;;;;;;1.65;0.50;;;22.50;56.00;;;;;;5050819;28;20069;-75
2021/07/01 05:55:55;;;;;;;0.40;0.40;;;22.60;56.10;;;;;;5032519;28;20025;-75
2021/07/01 05:58:21;;;;;;;5.85;0.60;;;22.60;56.20;;;;;;5047675;28;20043;-75
2021/07/01 06:00:47;;;;;;;4.22;0.77;;;22.60;55.90;;;;;;5052144;28;20100;-75
2021/07/01 06:03:13;;;;;;;1.75;0.60;;;22.60;55.80;;;;;;5051643;28;20527;-75
2021/07/01 06:05:44;;;;;;;0.88;0.82;;;22.60;56.00;;;;;;5050607;28;20029;-75
2021/07/01 06:08:12;;;;;;;0.60;0.60;;;22.70;56.10;;;;;;5052468;28;20029;-75
2021/07/01 06:10:40;;;;;;;0.50;0.50;;;22.70;56.10;;;;;;5052432;28;20029;-75
2021/07/01 06:13:07;;;;;;;1.35;0.52;;;22.80;56.20;;;;;;5052430;28;20035;-75
2021/07/01 06:15:34;;;;;;;1.02;0.80;;;22.90;56.10;;;;;;5051919;28;20055;-75
2021/07/01 06:18:01;;;;;;;2.15;0.50;;;23.00;55.90;;;;;;5052398;28;20070;-75
2021/07/01 06:20:27;;;;;;;2.03;0.50;;;23.10;55.80;;;;;;5052114;28;20025;-75
2021/07/01 06:22:53;;;;;;;2.60;0.80;;;23.20;56.70;;;;;;5050592;28;20052;-75
2021/07/01 06:25:20;;;;;;;3.03;0.73;;;23.30;58.10;;;;;;5052289;28;20029;-75
2021/07/01 06:27:46;;;;;;;1.95;0.63;;;23.30;57.80;;;;;;5051503;28;20372;-75
2021/07/01 06:30:23;;;;;;;1.55;0.70;;;23.40;56.20;;;;;;5052029;28;20103;-75
2021/07/01 06:35:34;;;;;;;1.00;0.65;;;23.40;56.20;;;;;;5050356;28;20111;-75
2021/07/01 06:38:07;;;;;;;2.95;0.73;;;23.50;56.10;;;;;;5048603;28;20108;-75
2021/07/01 06:40:34;;;;;;;1.60;0.70;;;23.50;55.90;;;;;;5050578;28;20029;-76
2021/07/01 06:43:02;;;;;;;0.50;0.50;;;23.60;54.50;;;;;;5050367;28;20424;-75
2021/07/01 06:45:28;;;;;;;1.75;0.77;;;23.60;54.40;;;;;;5050257;28;20108;-75
2021/07/01 06:47:56;;;;;;;1.23;0.60;;;23.60;54.50;;;;;;5050073;28;20020;-75
2021/07/01 06:50:27;;;;;;;2.17;0.75;;;23.70;54.30;;;;;;5049778;28;20033;-75
2021/07/01 06:52:55;;;;;;;1.80;0.80;;;23.70;55.40;;;;;;5049630;28;20107;-75
2021/07/01 06:55:21;;;;;;;1.17;0.65;;;23.80;56.40;;;;;;5049804;28;20025;-74
2021/07/01 06:57:48;;;;;;;0.80;0.80;;;23.90;61.00;;;;;;5050427;28;20025;-75
2021/07/01 07:00:16;;;;;;;1.65;0.70;;;24.00;60.90;;;;;;5053077;28;20378;-75
2021/07/01 07:02:43;;;;;;;1.98;0.55;;;24.00;55.30;;;;;;5054393;28;20147;-75
2021/07/01 07:05:11;;;;;;;1.35;0.57;;;24.10;55.40;;;;;;5053843;28;20497;-74
2021/07/01 07:07:39;;;;;;;2.95;0.70;;;24.00;55.60;;;;;;5053559;28;20025;-74
2021/07/01 07:10:06;;;;;;;2.05;0.80;;;24.10;54.40;;;;;;5053670;28;20107;-74
2021/07/01 07:12:44;;;;;;;1.33;0.82;;;24.10;54.80;;;;;;5053460;28;20047;-74
2021/07/01 07:15:28;;;;;;;2.65;0.60;;;24.00;54.20;;;;;;5053588;28;20060;-74
2021/07/01 07:18:00;;;;;;;0.60;0.60;;;24.20;55.10;;;;;;5054669;28;20451;-74
2021/07/01 07:20:27;;;;;;;;;;;24.10;54.60;;;;;;5055041;28;20021;-74
2021/07/01 07:22:56;;;;;;;2.05;0.70;;;24.20;54.70;;;;;;5052259;28;19958;-75
2021/07/01 07:25:22;;;;;;;8.85;0.98;;;24.20;55.00;;;;;;5053255;28;20491;-75
2021/07/01 07:28:09;;;;;;;3.30;0.90;;;24.30;54.30;;;;;;5053138;28;20060;-75
2021/07/01 07:30:35;;;;;;;5.22;1.20;;;24.30;54.20;;;;;;5053268;28;20048;-75
2021/07/01 07:33:11;;;;;;;1.20;1.10;;;24.20;54.50;;;;;;5056060;28;20025;-75
2021/07/01 07:35:37;;;;;;;3.00;0.80;;;24.20;53.90;;;;;;5053788;28;20194;-75
2021/07/01 07:38:07;;;;;;;4.22;0.90;;;24.20;53.90;;;;;;5053707;28;20029;-75
2021/07/01 07:40:33;;;;;;;5.57;1.73;;;24.20;54.50;;;;;;5053712;28;20009;-75
2021/07/01 07:43:04;;;;;;;3.60;1.00;;;24.40;55.50;;;;;;5053574;28;20060;-75
2021/07/01 07:45:30;;;;;;;2.85;1.20;;;24.50;55.70;;;;;;5052208;28;20032;-75
2021/07/01 07:47:56;;;;;;;1.10;0.90;;;24.50;54.20;;;;;;5053438;28;20029;-75
2021/07/01 07:50:21;;;;;;;0.90;0.90;;;24.40;53.70;;;;;;5053646;28;20387;-75
2021/07/01 07:52:51;;;;;;;0.90;0.90;;;24.50;54.00;;;;;;5053136;28;20049;-75
2021/07/01 07:55:20;;;;;;;1.30;1.02;;;24.50;53.90;;;;;;5053031;28;20472;-75
2021/07/01 07:57:50;;;;;;;0.95;0.85;;;24.60;54.30;;;;;;5052431;28;20021;-75
2021/07/01 08:00:19;;;;;;;1.05;0.80;;;24.60;53.60;;;;;;5049709;28;20048;-75
2021/07/01 08:03:04;;;;;;;1.23;0.77;;;24.70;53.80;;;;;;5052084;28;20024;-75
2021/07/01 08:05:30;;;;;;;6.38;1.10;;;24.80;54.70;;;;;;5050832;28;20112;-75
2021/07/01 08:07:57;;;;;;;1.35;1.23;;;24.90;55.40;;;;;;5070289;28;20024;-75
2021/07/01 08:10:30;;;;;;;1.15;1.05;;;25.00;53.40;;;;;;5053773;28;20033;-75
2021/07/01 08:13:04;;;;;;;3.53;1.00;;;24.90;52.80;;;;;;5054015;28;20496;-76
2021/07/01 08:15:34;;;;;;;0.77;0.77;;;25.00;53.10;;;;;;5054002;28;20013;-75
2021/07/01 08:18:02;;;;;;;4.40;0.98;;;25.00;53.60;;;;;;5047584;28;20067;-75
2021/07/01 08:20:29;;;;;;;3.35;1.30;;;25.10;54.80;;;;;;5050878;28;20025;-75
2021/07/01 08:22:56;;;;;;;1.48;1.00;;;25.20;55.40;;;;;;5052994;28;20025;-75
2021/07/01 08:25:23;;;;;;;2.05;1.10;;;25.30;54.90;;;;;;5052955;28;20041;-75
2021/07/01 08:27:52;;;;;;;4.13;1.17;;;25.50;55.40;;;;;;5053050;28;20529;-75
2021/07/01 08:30:20;;;;;;;1.13;0.77;;;25.50;52.80;;;;;;5051794;28;20032;-75
2021/07/01 08:32:48;;;;;;;1.02;1.00;;;25.60;53.80;;;;;;5052924;28;20545;-75
2021/07/01 08:35:16;;;;;;;1.63;1.15;;;25.60;52.60;;;;;;5052475;28;20367;-76
2021/07/01 08:37:45;;;;;;;2.63;1.08;;;25.70;53.00;;;;;;5045577;28;20025;-75
2021/07/01 08:40:14;;;;;;;2.58;1.00;;;25.70;52.40;;;;;;5051482;28;20062;-75
2021/07/01 08:42:40;;;;;;;3.15;1.30;;;25.80;51.80;;;;;;5052262;28;20360;-75
2021/07/01 08:45:13;;;;;;;1.60;1.00;;;25.80;52.20;;;;;;5052238;28;20048;-75
2021/07/01 08:47:44;;;;;;;3.13;1.00;;;25.90;54.60;;;;;;5052061;28;20032;-75
2021/07/01 08:50:11;;;;;;;1.83;1.08;;;26.00;53.80;;;;;;5051526;28;20357;-76
2021/07/01 08:53:12;;;;;;;2.88;1.10;;;26.00;53.60;;;;;;5051038;28;20044;-75
2021/07/01 08:55:40;;;;;;;1.67;0.85;;;26.00;53.60;;;;;;5036772;28;20490;-75
2021/07/01 08:58:08;;;;;;;2.25;0.88;;;26.00;51.40;;;;;;5050696;28;20059;-75
2021/07/01 09:00:42;;;;;;;3.33;1.10;;;25.90;50.30;;;;;;5051580;28;20051;-76
2021/07/01 09:03:09;;;;;;;1.58;0.93;;;25.90;50.40;;;;;;5051140;28;20131;-76
2021/07/01 09:05:37;;;;;;;1.08;1.08;;;26.00;52.30;;;;;;5051797;28;20029;-75
2021/07/01 09:08:10;;;;;;;2.05;0.95;;;26.10;53.90;;;;;;5051628;28;20028;-75
2021/07/01 09:10:54;;;;;;;3.00;1.15;;;26.20;54.70;;;;;;5051868;28;20452;-75
2021/07/01 09:13:25;;;;;;;1.40;1.40;;;26.20;52.80;;;;;;5051880;28;20036;-75
2021/07/01 09:15:52;;;;;;;1.63;1.30;;;26.20;53.30;;;;;;5050615;28;20742;-75
2021/07/01 09:18:20;;;;;;;2.78;1.20;;;26.30;53.00;;;;;;5051594;28;20122;-75
2021/07/01 09:20:46;;;;;;;2.83;1.30;;;26.40;53.60;;;;;;5051445;28;20033;-74
2021/07/01 09:23:12;;;;;;;5.13;1.00;;;26.50;53.60;;;;;;5051462;28;20391;-75
2021/07/01 09:25:42;;;;;;;9.60;1.23;;;26.50;54.40;;;;;;5050512;28;20128;-74
2021/07/01 09:28:07;;;;;;;3.40;1.08;;;26.60;53.50;;;;;;5051432;28;20033;-74
2021/07/01 09:30:34;;;;;;;0.70;0.70;;;26.60;53.80;;;;;;5052170;28;20528;-74
2021/07/01 09:33:02;;;;;;;3.45;0.95;;;26.70;53.40;;;;;;5050105;28;20013;-75
2021/07/01 09:35:32;;;;;;;3.72;0.80;;;26.70;53.10;;;;;;5049820;28;20040;-74
2021/07/01 09:38:04;;;;;;;1.85;1.10;;;26.70;52.30;;;;;;5051726;28;20063;-75
2021/07/01 09:40:31;;;;;;;1.80;0.98;;;26.90;50.90;;;;;;5049670;28;20029;-74
2021/07/01 09:43:01;;;;;;;1.52;1.00;;;26.90;49.20;;;;;;5050714;28;20278;-74
2021/07/01 09:45:28;;;;;;;3.17;0.82;;;27.00;49.60;;;;;;5051378;28;20062;-75
2021/07/01 09:47:56;;;;;;;1.85;0.70;;;27.10;49.90;;;;;;5050653;28;20033;-75
2021/07/01 09:50:25;;;;;;;1.20;0.70;;;27.00;47.30;;;;;;5050933;28;20025;-75
2021/07/01 09:52:55;;;;;;;6.43;0.90;;;27.10;48.20;;;;;;5046047;28;20130;-74
2021/07/01 09:55:27;;;;;;;1.25;0.80;;;27.20;48.80;;;;;;5044716;28;20021;-74
2021/07/01 09:57:55;;;;;;;0.55;0.55;;;27.20;46.20;;;;;;5042854;28;20028;-76
2021/07/01 10:00:27;;;;;;;0.57;0.57;;;27.20;45.10;;;;;;5048797;28;20037;-76
2021/07/01 10:03:09;;;;;;;1.73;0.80;;;27.40;46.30;;;;;;5049672;28;20374;-76
2021/07/01 10:05:37;;;;;;;0.93;0.70;;;27.40;46.50;;;;;;5048189;28;20091;-76
2021/07/01 10:08:04;;;;;;;5.15;0.60;;;27.40;46.10;;;;;;5049777;28;20158;-76
2021/07/01 10:10:41;;;;;;;12.85;0.70;;;27.30;46.40;;;;;;5049220;28;20074;-76
2021/07/01 10:13:11;;;;;;;0.65;0.65;;;27.50;46.70;;;;;;5029391;28;20510;-76
2021/07/01 10:15:37;;;;;;;0.88;0.40;;;27.40;45.50;;;;;;5029675;28;20060;-76
2021/07/01 10:18:23;;;;;;;0.60;0.60;;;27.50;45.50;;;;;;5029621;28;20021;-76
2021/07/01 10:20:54;;;;;;;0.50;0.50;;;27.50;45.30;;;;;;5030285;28;20062;-77
2021/07/01 10:23:27;;;;;;;0.57;0.57;;;27.60;44.60;;;;;;5029336;28;20099;-75
2021/07/01 10:25:58;;;;;;;0.35;0.35;;;27.70;44.20;;;;;;5029507;28;20025;-75
2021/07/01 10:28:26;;;;;;;0.80;0.60;;;27.80;44.80;;;;;;5028524;28;20033;-75
2021/07/01 10:31:02;;;;;;;1.30;0.80;;;27.80;44.60;;;;;;5029323;28;20467;-76
2021/07/01 10:33:37;;;;;;;0.60;0.60;;;27.80;44.70;;;;;;5029116;28;20025;-75
2021/07/01 10:36:04;;;;;;;1.42;0.70;;;27.80;44.00;;;;;;5032763;28;20040;-76
2021/07/01 10:38:50;;;;;;;1.98;0.88;;;27.90;46.00;;;;;;5031671;28;20025;-75
2021/07/01 10:41:37;;;;;;;1.05;0.63;;;28.10;45.60;;;;;;5038370;28;20048;-75
2021/07/01 10:44:05;;;;;;;1.42;0.80;;;28.00;45.40;;;;;;5053183;28;20087;-78
2021/07/01 10:46:38;;;;;;;1.42;0.95;;;28.00;45.60;;;;;;5052948;28;20025;-75
2021/07/01 10:49:05;;;;;;;2.78;1.30;;;27.90;47.30;;;;;;5052546;28;20037;-75
2021/07/01 10:51:31;;;;;;;7.68;1.65;;;27.90;49.00;;;;;;5051657;28;20386;-77
2021/07/01 10:54:12;;;;;;;2.17;1.60;;;28.00;49.70;;;;;;5052820;28;20581;-75
2021/07/01 10:56:43;;;;;;;5.05;1.38;;;28.00;49.90;;;;;;5051657;28;20593;-75
2021/07/01 10:59:11;;;;;;;2.22;1.40;;;28.10;49.20;;;;;;5052624;28;20112;-75
2021/07/01 11:01:38;;;;;;;4.55;1.70;;;27.90;49.60;;;;;;5052610;28;20014;-75
2021/07/01 11:04:17;;;;;;;6.88;2.20;;;28.00;50.30;;;;;;5052891;28;20522;-75
2021/07/01 11:07:04;;;;;;;5.38;1.70;;;28.00;49.50;;;;;;5051616;28;20087;-75
2021/07/01 11:09:44;;;;;;;8.95;1.80;;;28.00;50.00;;;;;;5051817;28;20098;-75
2021/07/01 11:12:12;;;;;;;5.28;1.83;;;28.10;50.00;;;;;;5054584;28;20029;-76
2021/07/01 11:14:40;;;;;;;2.60;1.30;;;28.20;49.80;;;;;;5055530;28;20053;-76
2021/07/01 11:17:05;;;;;;;2.75;1.55;;;28.30;50.50;;;;;;5055407;28;20035;-75
2021/07/01 11:19:39;;;;;;;5.65;2.33;;;28.30;49.80;;;;;;5058421;28;20020;-75
2021/07/01 11:22:05;;;;;;;7.05;2.20;;;28.30;50.30;;;;;;5074199;28;20145;-75
2021/07/01 11:24:31;;;;;;;3.28;1.88;;;28.40;49.50;;;;;;5075356;28;20104;-75
2021/07/01 11:26:59;;;;;;;1.90;1.50;;;28.50;50.10;;;;;;5073804;28;20048;-75
2021/07/01 11:29:42;;;;;;;2.00;1.80;;;28.50;49.40;;;;;;5073709;28;20104;-75
2021/07/01 11:32:17;;;;;;;3.45;2.05;;;28.60;48.80;;;;;;5074940;28;20040;-75
2021/07/01 11:34:47;;;;;;;3.42;2.03;;;28.60;48.90;;;;;;5073905;28;20082;-75
2021/07/01 11:37:13;;;;;;;4.15;2.83;;;28.50;49.30;;;;;;5057250;28;20028;-75
2021/07/01 11:39:40;;;;;;;5.55;1.83;;;28.60;48.90;;;;;;5054950;28;20021;-75
2021/07/01 11:42:06;;;;;;;2.15;2.00;;;28.80;49.20;;;;;;5055120;28;20032;-75
2021/07/01 11:44:33;;;;;;;1.98;1.80;;;28.60;47.60;;;;;;5054860;28;20028;-75
2021/07/01 11:47:01;;;;;;;5.90;1.80;;;28.60;48.10;;;;;;5054519;28;20100;-75
2021/07/01 11:49:32;;;;;;;7.93;1.83;;;28.70;48.60;;;;;;5054939;28;20017;-75
2021/07/01 11:52:00;;;;;;;5.95;2.15;;;28.70;47.70;;;;;;5053443;28;20055;-75
2021/07/01 11:54:27;;;;;;;5.68;1.45;;;28.80;47.40;;;;;;5054805;28;20471;-75
2021/07/01 11:56:54;;;;;;;4.05;1.88;;;28.90;47.90;;;;;;5053948;28;20471;-75
2021/07/01 11:59:30;;;;;;;4.85;1.45;;;28.90;47.20;;;;;;5053105;28;20021;-75
2021/07/01 12:02:01;;;;;;;1.60;1.40;;;29.00;47.40;;;;;;5054238;28;20017;-74
2021/07/01 12:04:31;;;;;;;6.18;1.55;;;29.20;46.70;;;;;;5054375;28;20032;-74
2021/07/01 12:07:22;;;;;;;6.07;1.50;;;29.20;45.40;;;;;;5053001;28;20029;-76
2021/07/01 12:09:49;;;;;;;1.90;1.15;;;29.10;45.20;;;;;;5054180;28;20103;-75
2021/07/01 12:12:22;;;;;;;2.17;1.10;;;29.30;45.10;;;;;;5053931;28;20112;-75
2021/07/01 12:15:09;;;;;;;6.15;0.88;;;29.40;44.10;;;;;;5054660;28;20025;-75
2021/07/01 12:17:58;;;;;;;1.40;1.30;;;29.60;44.40;;;;;;5054491;28;20032;-75
2021/07/01 12:20:30;;;;;;;2.05;1.52;;;29.70;43.10;;;;;;5053573;28;20029;-75
2021/07/01 12:22:56;;;;;;;1.58;1.00;;;29.90;43.10;;;;;;5054203;28;20131;-75
2021/07/01 12:25:24;;;;;;;3.17;1.30;;;29.90;42.90;;;;;;5054350;28;20029;-75
2021/07/01 12:28:05;;;;;;;4.13;1.40;;;30.20;43.30;;;;;;5053958;28;20485;-74
2021/07/01 12:31:08;;;;;;;3.07;1.40;;;30.30;43.80;;;;;;5053963;28;20367;-75
2021/07/01 12:33:48;;;;;;;2.47;1.23;;;30.20;44.00;;;;;;5053949;28;20122;-75
2021/07/01 12:36:56;;;;;;;2.45;0.98;;;30.40;43.40;;;;;;5052612;28;20498;-74
2021/07/01 12:39:25;;;;;;;1.92;1.30;;;30.60;41.40;;;;;;5043285;28;20060;-75
2021/07/01 12:42:15;;;;;;;1.48;1.20;;;30.80;43.10;;;;;;5053434;28;20013;-75
2021/07/01 12:44:44;;;;;;;4.00;1.25;;;30.60;42.90;;;;;;5049574;28;20040;-75
2021/07/01 12:47:36;;;;;;;2.88;1.40;;;30.30;42.60;;;;;;5053682;28;20052;-75
2021/07/01 12:50:04;;;;;;;1.55;1.45;;;30.40;42.80;;;;;;5053531;28;20017;-75
2021/07/01 12:52:41;;;;;;;2.80;1.25;;;30.30;43.20;;;;;;5053379;28;20045;-75
2021/07/01 12:55:16;;;;;;;5.80;1.50;;;30.40;43.60;;;;;;5053524;28;20066;-75
2021/07/01 12:57:42;;;;;;;5.45;1.40;;;30.50;43.80;;;;;;5052664;28;20070;-74
2021/07/01 13:00:08;;;;;;;7.10;1.38;;;30.50;43.60;;;;;;5053412;28;20107;-75
2021/07/01 13:02:34;;;;;;;2.72;1.40;;;30.40;44.70;;;;;;5053388;28;20032;-75
2021/07/01 13:05:08;;;;;;;1.88;1.13;;;30.10;43.40;;;;;;5053341;28;20029;-75
2021/07/01 13:07:35;;;;;;;5.25;1.55;;;30.20;43.10;;;;;;5053278;28;20025;-75
2021/07/01 13:10:07;;;;;;;2.80;1.30;;;30.30;43.50;;;;;;5052064;28;20112;-75